Time;durP1;ratioP1;P1;durP2;ratioP2;P2;SDS_P1;SDS_P2;PMS_P1;PMS_P2;Temp;Humidity;BMP_temperature;BMP_pressure;BME280_temperature;BME280_humidity;BME280_pressure;Samples;Min_cycle;Max_cycle;Signal;HPM_P1;HPM_P2
2022/08/13 00:00:28;;;;;;;;;;;19.40;71.30;;;;;;5057744;28;19939;-96
2022/08/13 00:02:56;;;;;;;;;;;19.30;72.10;;;;;;5057605;28;19942;-95
2022/08/13 00:05:24;;;;;;;;;;;19.30;71.60;;;;;;5059087;28;20423;-96
2022/08/13 00:07:50;;;;;;;;;;;19.30;72.00;;;;;;5051599;28;19978;-96
2022/08/13 00:10:37;;;;;;;;;;;19.10;71.60;;;;;;5057642;28;20095;-96
2022/08/13 00:13:04;;;;;;;;;;;18.90;71.50;;;;;;5056794;28;19966;-96
2022/08/13 00:15:35;;;;;;;;;;;18.80;71.70;;;;;;5056881;28;19981;-96
2022/08/13 00:18:06;;;;;;;;;;;18.70;71.90;;;;;;5057878;28;20394;-95
2022/08/13 00:20:35;;;;;;;;;;;18.80;71.10;;;;;;5057232;28;20385;-95
2022/08/13 00:23:01;;;;;;;;;;;18.80;70.80;;;;;;5055932;28;19993;-96
2022/08/13 00:25:27;;;;;;;;;;;18.80;70.30;;;;;;5057803;28;19987;-95
2022/08/13 00:27:57;;;;;;;;;;;18.80;70.10;;;;;;5057383;28;20017;-96
2022/08/13 00:30:24;;;;;;;;;;;18.80;69.70;;;;;;5055866;28;19943;-96
2022/08/13 00:32:50;;;;;;;;;;;18.80;69.30;;;;;;5057139;28;20410;-96
2022/08/13 00:35:16;;;;;;;;;;;18.80;69.10;;;;;;5057005;28;20034;-96
2022/08/13 00:37:41;;;;;;;;;;;18.80;69.00;;;;;;5057422;28;19986;-96
2022/08/13 00:40:11;;;;;;;;;;;18.80;69.40;;;;;;5057240;28;19976;-95
2022/08/13 00:42:40;;;;;;;;;;;18.70;68.60;;;;;;5057164;28;19943;-96
2022/08/13 00:45:06;;;;;;;;;;;18.60;69.50;;;;;;5055058;28;19944;-96
2022/08/13 00:50:16;;;;;;;;;;;18.40;69.80;;;;;;5056085;28;19952;-95
2022/08/13 00:52:42;;;;;;;;;;;18.30;70.60;;;;;;5055833;28;19963;-95
2022/08/13 00:55:09;;;;;;;;;;;18.10;71.00;;;;;;5055690;28;19941;-96
2022/08/13 00:57:35;;;;;;;;;;;18.00;71.30;;;;;;5055162;28;20021;-96
2022/08/13 01:00:08;;;;;;;;;;;17.90;71.30;;;;;;5055660;28;19943;-96
2022/08/13 01:02:34;;;;;;;;;;;17.90;71.30;;;;;;5055861;28;20023;-96
2022/08/13 01:05:00;;;;;;;;;;;17.90;71.30;;;;;;5055363;28;19962;-96
2022/08/13 01:07:27;;;;;;;;;;;17.90;71.10;;;;;;5050794;28;20359;-96
2022/08/13 01:09:53;;;;;;;;;;;18.00;70.60;;;;;;5054783;28;19952;-96
2022/08/13 01:12:21;;;;;;;;;;;18.00;70.30;;;;;;5054331;28;19968;-96
2022/08/13 01:14:48;;;;;;;;;;;18.10;70.00;;;;;;5055616;28;20285;-96
2022/08/13 01:17:15;;;;;;;;;;;18.10;69.70;;;;;;5055304;28;19939;-96
2022/08/13 01:19:43;;;;;;;;;;;18.10;69.60;;;;;;5055689;28;19949;-96
2022/08/13 01:22:08;;;;;;;;;;;18.10;69.30;;;;;;5056071;28;19960;-96
2022/08/13 01:24:34;;;;;;;;;;;18.20;69.10;;;;;;5055506;28;20312;-96
2022/08/13 01:26:59;;;;;;;;;;;18.10;69.00;;;;;;5054851;28;19957;-96
2022/08/13 01:29:25;;;;;;;;;;;18.00;69.10;;;;;;5054975;28;19946;-95
2022/08/13 01:31:51;;;;;;;;;;;17.90;69.30;;;;;;5054932;28;19960;-95
2022/08/13 01:34:17;;;;;;;;;;;17.90;69.10;;;;;;5055437;28;20454;-96
2022/08/13 01:36:46;;;;;;;;;;;17.80;69.10;;;;;;5054652;28;20513;-96
2022/08/13 01:39:12;;;;;;;;;;;17.80;69.00;;;;;;5055115;28;19944;-96
2022/08/13 01:41:38;;;;;;;;;;;17.80;68.90;;;;;;5055191;28;19949;-96
2022/08/13 01:44:04;;;;;;;;;;;17.90;69.00;;;;;;5054162;28;20483;-96
2022/08/13 01:52:05;;;;;;;;;;;18.00;68.30;;;;;;5055551;28;19972;-96
2022/08/13 01:54:32;;;;;;;;;;;18.00;68.00;;;;;;5055321;28;20033;-96
2022/08/13 01:56:59;;;;;;;;;;;18.10;67.70;;;;;;5055390;28;19940;-96
2022/08/13 01:59:25;;;;;;;;;;;18.10;67.20;;;;;;5054864;28;19935;-96
2022/08/13 02:01:51;;;;;;;;;;;18.10;67.10;;;;;;5054467;28;19951;-95
2022/08/13 02:04:17;;;;;;;;;;;18.10;67.20;;;;;;5054723;28;20028;-96
2022/08/13 02:06:42;;;;;;;;;;;18.10;67.50;;;;;;5052523;28;19940;-95
2022/08/13 02:09:08;;;;;;;;;;;18.10;67.60;;;;;;5050361;28;20321;-96
2022/08/13 02:11:35;;;;;;;;;;;18.10;67.40;;;;;;5055655;28;19967;-96
2022/08/13 02:14:03;;;;;;;;;;;18.10;67.40;;;;;;5053580;28;20474;-95
2022/08/13 02:16:30;;;;;;;;;;;18.20;67.40;;;;;;5050806;28;19940;-96
2022/08/13 02:18:55;;;;;;;;;;;18.20;67.20;;;;;;5053904;28;19976;-96
2022/08/13 02:21:22;;;;;;;;;;;18.20;67.10;;;;;;5054424;28;20035;-95
2022/08/13 02:23:52;;;;;;;;;;;18.20;67.40;;;;;;5054515;28;19944;-96
2022/08/13 02:26:18;;;;;;;;;;;18.20;67.30;;;;;;5053889;28;19991;-96
2022/08/13 02:28:44;;;;;;;;;;;18.00;67.30;;;;;;5053847;28;19950;-95
2022/08/13 02:31:09;;;;;;;;;;;18.10;67.20;;;;;;5053526;28;20060;-96
2022/08/13 02:33:37;;;;;;;;;;;18.00;67.70;;;;;;5053555;28;19942;-96
2022/08/13 02:36:10;;;;;;;;;;;18.00;67.80;;;;;;5053861;28;19936;-96
2022/08/13 02:38:38;;;;;;;;;;;17.90;68.40;;;;;;5056339;28;19944;-95
2022/08/13 02:43:50;;;;;;;;;;;17.80;68.80;;;;;;5057975;28;19949;-95
2022/08/13 02:46:16;;;;;;;;;;;17.80;68.10;;;;;;5057761;28;19944;-96
2022/08/13 02:48:42;;;;;;;;;;;17.80;67.60;;;;;;5058198;28;19938;-96
2022/08/13 02:51:11;;;;;;;;;;;17.80;67.00;;;;;;5057765;28;20002;-96
2022/08/13 02:53:40;;;;;;;;;;;17.70;66.70;;;;;;5057266;28;19964;-96
2022/08/13 02:56:08;;;;;;;;;;;17.80;66.60;;;;;;5057309;28;19963;-96
2022/08/13 02:58:34;;;;;;;;;;;17.90;67.00;;;;;;5058116;28;19961;-95
2022/08/13 03:01:02;;;;;;;;;;;18.00;66.00;;;;;;5058040;28;19984;-95
2022/08/13 03:03:28;;;;;;;;;;;18.00;66.30;;;;;;5057520;28;19942;-95
2022/08/13 03:05:54;;;;;;;;;;;18.20;66.00;;;;;;5057225;28;20010;-96
2022/08/13 03:08:19;;;;;;;;;;;18.30;65.70;;;;;;5051378;28;20386;-96
2022/08/13 03:10:45;;;;;;;;;;;18.30;66.20;;;;;;5057862;28;20356;-96
2022/08/13 03:13:15;;;;;;;;;;;18.20;65.50;;;;;;5056623;28;20412;-96
2022/08/13 03:15:42;;;;;;;;;;;18.20;66.10;;;;;;5058196;28;19948;-95
2022/08/13 03:18:09;;;;;;;;;;;18.20;65.40;;;;;;5057938;28;19988;-96
2022/08/13 03:20:34;;;;;;;;;;;18.20;68.10;;;;;;5057029;28;20047;-95
2022/08/13 03:23:01;;;;;;;;;;;18.10;68.40;;;;;;5057807;28;19973;-95
2022/08/13 03:25:28;;;;;;;;;;;18.00;66.60;;;;;;5057434;28;19951;-96
2022/08/13 03:27:54;;;;;;;;;;;17.90;67.50;;;;;;5057983;28;19948;-96
2022/08/13 03:30:21;;;;;;;;;;;17.90;67.40;;;;;;5057085;28;19950;-95
2022/08/13 03:32:48;;;;;;;;;;;17.80;66.60;;;;;;5056560;28;19960;-96
2022/08/13 03:35:21;;;;;;;;;;;17.80;66.80;;;;;;5056765;28;20002;-96
2022/08/13 03:37:48;;;;;;;;;;;17.80;67.10;;;;;;5056620;28;19969;-96
2022/08/13 03:40:14;;;;;;;;;;;17.70;67.40;;;;;;5055293;28;19946;-95
2022/08/13 03:42:40;;;;;;;;;;;17.70;67.60;;;;;;5057060;28;20449;-96
2022/08/13 03:45:06;;;;;;;;;;;17.60;67.80;;;;;;5056771;28;19947;-96
2022/08/13 03:47:32;;;;;;;;;;;17.60;68.40;;;;;;5056858;28;19939;-96
2022/08/13 03:49:59;;;;;;;;;;;17.60;68.20;;;;;;5055937;28;20302;-96
2022/08/13 03:52:25;;;;;;;;;;;17.50;68.20;;;;;;5056495;28;19959;-96
2022/08/13 03:54:50;;;;;;;;;;;17.60;68.30;;;;;;5056242;28;19946;-96
2022/08/13 03:57:17;;;;;;;;;;;17.50;68.60;;;;;;5056145;28;20387;-96
2022/08/13 03:59:43;;;;;;;;;;;17.60;68.60;;;;;;5054984;28;19990;-96
2022/08/13 04:02:09;;;;;;;;;;;17.50;68.80;;;;;;5056406;28;20313;-96
2022/08/13 04:04:34;;;;;;;;;;;17.50;70.70;;;;;;5056580;28;20352;-96
2022/08/13 04:07:00;;;;;;;;;;;17.40;70.80;;;;;;5053811;28;19940;-95
2022/08/13 04:09:26;;;;;;;;;;;17.30;70.20;;;;;;5053721;28;19947;-96
2022/08/13 04:11:51;;;;;;;;;;;17.30;70.30;;;;;;5056851;28;19968;-96
2022/08/13 04:14:17;;;;;;;;;;;17.40;69.80;;;;;;5056694;28;19942;-95
2022/08/13 04:16:42;;;;;;;;;;;17.50;70.30;;;;;;5056766;28;19993;-95
2022/08/13 04:19:08;;;;;;;;;;;17.50;70.60;;;;;;5056474;28;20046;-96
2022/08/13 04:21:35;;;;;;;;;;;17.50;69.70;;;;;;5056965;28;19942;-96
2022/08/13 04:24:03;;;;;;;;;;;17.40;69.70;;;;;;5056815;28;19950;-96
2022/08/13 04:26:30;;;;;;;;;;;17.30;70.30;;;;;;5056524;28;20372;-96
2022/08/13 04:28:57;;;;;;;;;;;17.30;71.10;;;;;;5056548;28;20463;-96
2022/08/13 04:31:23;;;;;;;;;;;17.10;71.20;;;;;;5055062;28;20415;-96
2022/08/13 04:33:49;;;;;;;;;;;17.10;71.40;;;;;;5056172;28;19943;-96
2022/08/13 04:36:15;;;;;;;;;;;17.20;71.20;;;;;;5056011;28;20450;-96
2022/08/13 04:38:42;;;;;;;;;;;17.30;71.60;;;;;;5057126;28;19994;-96
2022/08/13 04:41:07;;;;;;;;;;;17.30;72.00;;;;;;5055889;28;20442;-96
2022/08/13 04:43:33;;;;;;;;;;;17.20;71.90;;;;;;5057348;28;19944;-96
2022/08/13 04:45:59;;;;;;;;;;;17.00;72.10;;;;;;5057495;28;19992;-96
2022/08/13 04:48:25;;;;;;;;;;;16.90;72.30;;;;;;5056540;28;19953;-96
2022/08/13 04:50:52;;;;;;;;;;;16.90;72.50;;;;;;5057069;28;19955;-96
2022/08/13 04:53:23;;;;;;;;;;;16.90;72.20;;;;;;5056278;28;19967;-95
2022/08/13 04:55:49;;;;;;;;;;;16.80;73.60;;;;;;5056472;28;20380;-96
2022/08/13 04:58:15;;;;;;;;;;;16.80;72.90;;;;;;5055394;28;19940;-96
2022/08/13 05:00:44;;;;;;;;;;;16.80;72.40;;;;;;5054583;28;19941;-96
2022/08/13 05:03:13;;;;;;;;;;;16.80;72.50;;;;;;5055787;28;20395;-96
2022/08/13 05:05:40;;;;;;;;;;;16.80;72.30;;;;;;5056287;28;19937;-96
2022/08/13 05:08:07;;;;;;;;;;;16.90;71.80;;;;;;5050287;28;20035;-96
2022/08/13 05:10:38;;;;;;;;;;;17.00;71.70;;;;;;5056144;28;19939;-96
2022/08/13 05:13:04;;;;;;;;;;;17.10;72.90;;;;;;5056238;28;19961;-96
2022/08/13 05:15:30;;;;;;;;;;;17.30;72.10;;;;;;5056167;28;19950;-96
2022/08/13 05:17:56;;;;;;;;;;;17.30;71.20;;;;;;5055807;28;19970;-96
2022/08/13 05:20:22;;;;;;;;;;;17.40;71.70;;;;;;5054194;28;20409;-96
2022/08/13 05:22:48;;;;;;;;;;;17.60;71.80;;;;;;5055942;28;19955;-96
2022/08/13 05:25:16;;;;;;;;;;;17.70;70.60;;;;;;5055943;28;19943;-96
2022/08/13 05:27:42;;;;;;;;;;;17.80;71.00;;;;;;5056055;28;20014;-95
2022/08/13 05:30:09;;;;;;;;;;;17.80;71.30;;;;;;5055442;28;19980;-96
2022/08/13 05:32:38;;;;;;;;;;;17.80;72.40;;;;;;5054058;28;20002;-96
2022/08/13 05:35:06;;;;;;;;;;;18.00;71.80;;;;;;5054529;28;20551;-96
2022/08/13 05:37:31;;;;;;;;;;;18.10;71.70;;;;;;5053862;28;19952;-96
2022/08/13 05:39:57;;;;;;;;;;;18.20;71.20;;;;;;5053601;28;19944;-95
2022/08/13 05:42:22;;;;;;;;;;;18.20;71.00;;;;;;5055218;28;19983;-96
2022/08/13 05:44:48;;;;;;;;;;;18.30;70.60;;;;;;5055222;28;19947;-96
2022/08/13 05:47:14;;;;;;;;;;;18.40;70.50;;;;;;5056665;28;19949;-96
2022/08/13 05:49:39;;;;;;;;;;;18.50;70.50;;;;;;5056015;28;19940;-96
2022/08/13 05:52:05;;;;;;;;;;;18.60;70.70;;;;;;5057320;28;19998;-95
2022/08/13 05:54:31;;;;;;;;;;;18.80;69.80;;;;;;5055559;28;19938;-95
2022/08/13 05:56:57;;;;;;;;;;;18.90;69.90;;;;;;5056604;28;19937;-96
2022/08/13 06:04:52;;;;;;;;;;;19.30;68.60;;;;;;5056295;28;19949;-96
2022/08/13 06:07:19;;;;;;;;;;;19.50;66.50;;;;;;5050010;28;19945;-96
2022/08/13 06:09:45;;;;;;;;;;;19.70;64.40;;;;;;5054230;28;20293;-96
2022/08/13 06:12:11;;;;;;;;;;;19.90;63.90;;;;;;5055258;28;19957;-95
2022/08/13 06:14:38;;;;;;;;;;;20.10;62.90;;;;;;5054588;28;20406;-96
2022/08/13 06:17:04;;;;;;;;;;;20.30;62.10;;;;;;5051323;22;19938;-96
2022/08/13 06:19:32;;;;;;;;;;;20.40;60.20;;;;;;4972595;28;20012;-95
2022/08/13 06:22:02;;;;;;;;;;;20.60;60.40;;;;;;4972411;28;19939;-96
2022/08/13 06:24:32;;;;;;;;;;;20.80;59.90;;;;;;4954669;28;20519;-96
2022/08/13 06:27:00;;;;;;;;;;;20.90;59.50;;;;;;4955486;28;19987;-96
2022/08/13 06:29:28;;;;;;;;;;;21.00;58.40;;;;;;4972433;28;19942;-96
2022/08/13 06:31:55;;;;;;;;;;;21.10;60.30;;;;;;4972916;28;20011;-96
2022/08/13 06:34:20;;;;;;;;;;;21.20;59.80;;;;;;4972657;28;19993;-96
2022/08/13 06:36:47;;;;;;;;;;;21.30;58.60;;;;;;4972462;28;19946;-96
2022/08/13 06:39:13;;;;;;;;;;;21.40;56.90;;;;;;4972191;28;19937;-96
2022/08/13 06:41:40;;;;;;;;;;;21.60;56.00;;;;;;4972202;28;19939;-96
2022/08/13 06:44:06;;;;;;;;;;;21.80;55.40;;;;;;4956338;28;19949;-96
2022/08/13 06:46:32;;;;;;;;;;;21.90;54.80;;;;;;4974714;28;19990;-96
2022/08/13 06:48:58;;;;;;;;;;;22.10;54.70;;;;;;4974496;28;19945;-96
2022/08/13 06:51:25;;;;;;;;;;;22.20;53.60;;;;;;4956461;28;19968;-96
2022/08/13 06:53:50;;;;;;;;;;;22.30;54.10;;;;;;4974267;28;19947;-96
2022/08/13 06:56:20;;;;;;;;;;;22.50;52.70;;;;;;4973829;28;19944;-96
2022/08/13 06:58:46;;;;;;;;;;;22.60;52.10;;;;;;4973385;28;19944;-96
2022/08/13 07:01:30;;;;;;;;;;;22.70;52.60;;;;;;4973371;28;19937;-96
2022/08/13 07:03:56;;;;;;;;;;;22.80;50.60;;;;;;4956682;28;19946;-96
2022/08/13 07:06:24;;;;;;;;;;;22.90;50.20;;;;;;4972527;28;19946;-96
2022/08/13 07:08:50;;;;;;;;;;;23.00;50.40;;;;;;4969680;28;19938;-96
2022/08/13 07:11:23;;;;;;;;;;;23.10;49.90;;;;;;4974252;28;19966;-96
2022/08/13 07:13:51;;;;;;;;;;;23.20;49.60;;;;;;4974950;28;19938;-95
2022/08/13 07:16:18;;;;;;;;;;;23.30;49.60;;;;;;4956755;28;19977;-96
2022/08/13 07:18:45;;;;;;;;;;;23.40;48.90;;;;;;4974248;28;19978;-96
2022/08/13 07:21:11;;;;;;;;;;;23.50;48.60;;;;;;4976545;28;19945;-96
2022/08/13 07:23:40;;;;;;;;;;;23.50;49.80;;;;;;4959626;28;19955;-96
2022/08/13 07:26:07;;;;;;;;;;;23.60;48.80;;;;;;4978614;28;19951;-96
2022/08/13 07:28:33;;;;;;;;;;;23.70;48.90;;;;;;4962642;28;19944;-96
2022/08/13 07:30:59;;;;;;;;;;;23.80;47.40;;;;;;4962162;28;20577;-96
2022/08/13 07:33:25;;;;;;;;;;;23.90;47.50;;;;;;4979392;28;20333;-96
2022/08/13 07:35:51;;;;;;;;;;;24.00;47.30;;;;;;4978894;28;19950;-96
2022/08/13 07:38:17;;;;;;;;;;;24.20;45.40;;;;;;4961696;28;19957;-96
2022/08/13 07:40:45;;;;;;;;;;;24.30;44.20;;;;;;4978946;28;19938;-96
2022/08/13 07:43:12;;;;;;;;;;;24.30;44.30;;;;;;4980249;28;19941;-96
2022/08/13 07:45:39;;;;;;;;;;;24.50;44.60;;;;;;4980880;28;19949;-96
2022/08/13 07:48:06;;;;;;;;;;;24.60;44.30;;;;;;4981945;28;19941;-96
2022/08/13 07:50:33;;;;;;;;;;;24.70;43.20;;;;;;4965009;28;19947;-96
2022/08/13 07:52:59;;;;;;;;;;;24.70;43.00;;;;;;4964223;28;19971;-96
2022/08/13 07:55:25;;;;;;;;;;;24.80;42.00;;;;;;4981932;28;20023;-96
2022/08/13 07:57:52;;;;;;;;;;;24.80;42.90;;;;;;4983020;28;19944;-96
2022/08/13 08:00:21;;;;;;;;;;;24.90;41.30;;;;;;4980975;28;19948;-96
2022/08/13 08:02:48;;;;;;;;;;;25.00;41.60;;;;;;4983226;28;19950;-96
2022/08/13 08:05:14;;;;;;;;;;;25.00;40.90;;;;;;4982870;28;20316;-96
2022/08/13 08:07:40;;;;;;;;;;;25.20;41.90;;;;;;4979556;28;20033;-96
2022/08/13 08:10:06;;;;;;;;;;;25.20;41.20;;;;;;4982441;28;19998;-96
2022/08/13 08:12:35;;;;;;;;;;;25.40;40.70;;;;;;4982902;28;19941;-96
2022/08/13 08:15:05;;;;;;;;;;;25.40;40.30;;;;;;4979021;28;19942;-96
2022/08/13 08:17:31;;;;;;;;;;;25.40;41.00;;;;;;4963028;28;19984;-96
2022/08/13 08:19:57;;;;;;;;;;;25.50;40.20;;;;;;4979329;28;20460;-96
2022/08/13 08:22:23;;;;;;;;;;;25.50;39.40;;;;;;4962198;28;19945;-96
2022/08/13 08:24:50;;;;;;;;;;;25.60;39.90;;;;;;4963503;28;19948;-96
2022/08/13 08:27:16;;;;;;;;;;;25.70;39.80;;;;;;4963491;28;19964;-96
2022/08/13 08:29:46;;;;;;;;;;;25.70;39.40;;;;;;4964342;28;19943;-96
2022/08/13 08:32:13;;;;;;;;;;;25.70;39.10;;;;;;4982733;28;20031;-96
2022/08/13 08:34:40;;;;;;;;;;;25.70;39.60;;;;;;4965687;28;19945;-96
2022/08/13 08:37:06;;;;;;;;;;;25.70;37.30;;;;;;4982753;28;19942;-96
2022/08/13 08:42:38;;;;;;;;;;;25.90;38.00;;;;;;4982753;28;19988;-96
2022/08/13 08:45:12;;;;;;;;;;;25.90;37.70;;;;;;4965384;28;19948;-96
2022/08/13 08:47:37;;;;;;;;;;;26.00;41.40;;;;;;4965589;28;20407;-96
2022/08/13 08:50:05;;;;;;;;;;;26.00;39.50;;;;;;4965930;28;19939;-96
2022/08/13 08:55:15;;;;;;;;;;;26.20;40.60;;;;;;4982347;28;20038;-96
2022/08/13 08:57:44;;;;;;;;;;;26.40;41.70;;;;;;4965823;28;19948;-96
2022/08/13 09:00:18;;;;;;;;;;;26.50;39.20;;;;;;4983880;28;19946;-96
2022/08/13 09:02:47;;;;;;;;;;;26.60;38.30;;;;;;4983333;28;19938;-96
2022/08/13 09:05:14;;;;;;;;;;;26.70;38.10;;;;;;4982846;28;19936;-95
2022/08/13 09:07:41;;;;;;;;;;;26.70;40.10;;;;;;4961401;28;20019;-96
2022/08/13 09:10:09;;;;;;;;;;;26.90;36.90;;;;;;4983191;28;19941;-96
2022/08/13 09:12:40;;;;;;;;;;;27.10;36.60;;;;;;4983726;28;19967;-96
2022/08/13 09:15:06;;;;;;;;;;;27.10;37.30;;;;;;4967275;28;19945;-96
2022/08/13 09:17:32;;;;;;;;;;;27.10;37.10;;;;;;4967173;28;19974;-96
2022/08/13 09:19:58;;;;;;;;;;;27.20;36.60;;;;;;4984578;28;19944;-96
2022/08/13 09:22:24;;;;;;;;;;;27.20;37.30;;;;;;4984618;28;19942;-96
2022/08/13 09:24:52;;;;;;;;;;;27.20;37.40;;;;;;4967701;28;20317;-96
2022/08/13 09:27:18;;;;;;;;;;;27.30;38.20;;;;;;4968395;28;19964;-96
2022/08/13 09:29:45;;;;;;;;;;;27.40;42.40;;;;;;4983671;28;19941;-95
2022/08/13 09:32:14;;;;;;;;;;;27.50;41.00;;;;;;4981610;28;19965;-96
2022/08/13 09:34:44;;;;;;;;;;;27.40;39.60;;;;;;4981758;28;19959;-96
2022/08/13 09:37:11;;;;;;;;;;;27.60;39.50;;;;;;4982508;28;19943;-96
2022/08/13 09:39:49;;;;;;;;;;;27.60;41.10;;;;;;4965285;28;19949;-96
2022/08/13 09:42:23;;;;;;;;;;;27.60;38.90;;;;;;4965425;28;19943;-96
2022/08/13 09:44:52;;;;;;;;;;;27.50;35.90;;;;;;4981867;28;19943;-96
2022/08/13 09:47:17;;;;;;;;;;;27.50;35.30;;;;;;4982001;28;19948;-96
2022/08/13 09:49:46;;;;;;;;;;;27.50;35.90;;;;;;4985585;28;19973;-96
2022/08/13 09:52:12;;;;;;;;;;;27.50;37.20;;;;;;4967945;28;20316;-96
2022/08/13 09:54:41;;;;;;;;;;;27.50;38.80;;;;;;4966760;28;19955;-96
2022/08/13 09:57:06;;;;;;;;;;;27.50;40.90;;;;;;4983295;28;20065;-96
2022/08/13 09:59:33;;;;;;;;;;;27.60;38.40;;;;;;4984318;28;19940;-96
2022/08/13 10:02:05;;;;;;;;;;;27.70;37.90;;;;;;4983052;28;19936;-96
2022/08/13 10:04:32;;;;;;;;;;;27.60;38.30;;;;;;4983284;28;19964;-96
2022/08/13 10:06:58;;;;;;;;;;;27.60;41.10;;;;;;4981359;28;19950;-96
2022/08/13 10:09:26;;;;;;;;;;;27.60;39.30;;;;;;4964370;28;19946;-96
2022/08/13 10:11:55;;;;;;;;;;;27.60;39.80;;;;;;4983274;28;19974;-96
2022/08/13 10:14:21;;;;;;;;;;;27.60;40.10;;;;;;4966644;28;19948;-96
2022/08/13 10:16:47;;;;;;;;;;;27.70;40.80;;;;;;4983250;28;20157;-96
2022/08/13 10:19:13;;;;;;;;;;;27.80;39.50;;;;;;4965745;28;20050;-96
2022/08/13 10:21:38;;;;;;;;;;;27.90;36.00;;;;;;4982131;28;20040;-96
2022/08/13 10:24:05;;;;;;;;;;;27.90;35.30;;;;;;4981959;28;19967;-96
2022/08/13 10:26:31;;;;;;;;;;;28.00;36.00;;;;;;4981935;28;19953;-96
2022/08/13 10:28:56;;;;;;;;;;;28.10;38.40;;;;;;4982321;28;19937;-96
2022/08/13 10:31:27;;;;;;;;;;;28.20;37.50;;;;;;4983976;28;20002;-96
2022/08/13 10:33:54;;;;;;;;;;;28.30;36.00;;;;;;4965958;28;19941;-96
2022/08/13 10:36:21;;;;;;;;;;;28.30;35.50;;;;;;4982605;28;19937;-96
2022/08/13 10:38:47;;;;;;;;;;;28.30;35.50;;;;;;4983045;28;19951;-96
2022/08/13 10:41:13;;;;;;;;;;;28.30;34.90;;;;;;4983498;28;19948;-96
2022/08/13 10:43:39;;;;;;;;;;;28.70;35.10;;;;;;4983073;28;20299;-96
2022/08/13 10:46:06;;;;;;;;;;;28.60;34.10;;;;;;4967239;28;19954;-96
2022/08/13 10:48:32;;;;;;;;;;;28.70;35.90;;;;;;4984495;28;19946;-96
2022/08/13 10:50:58;;;;;;;;;;;28.90;37.40;;;;;;4980552;28;19947;-96
2022/08/13 10:56:11;;;;;;;;;;;29.20;32.80;;;;;;4979380;28;19944;-96
2022/08/13 10:58:41;;;;;;;;;;;29.20;32.60;;;;;;4978781;28;20032;-96
2022/08/13 11:01:07;;;;;;;;;;;29.20;33.40;;;;;;4982368;28;20010;-96
2022/08/13 11:03:33;;;;;;;;;;;29.20;32.80;;;;;;4981702;28;19944;-96
2022/08/13 11:06:03;;;;;;;;;;;29.30;33.20;;;;;;4963164;28;20002;-96
2022/08/13 11:08:31;;;;;;;;;;;29.20;31.60;;;;;;4976425;28;19940;-96
2022/08/13 11:10:57;;;;;;;;;;;29.10;33.20;;;;;;4982126;28;19994;-96
2022/08/13 11:13:23;;;;;;;;;;;29.40;33.70;;;;;;4967155;28;19971;-96
2022/08/13 11:15:48;;;;;;;;;;;29.70;33.40;;;;;;4968215;28;19944;-96
2022/08/13 11:18:14;;;;;;;;;;;29.80;32.60;;;;;;4965274;28;20391;-96
2022/08/13 11:21:02;;;;;;;;;;;30.00;32.20;;;;;;4967161;28;19943;-96
2022/08/13 11:23:26;;;;;;;;;;;30.20;31.40;;;;;;4965442;28;19966;-96
2022/08/13 11:25:51;;;;;;;;;;;29.90;30.90;;;;;;4967614;28;19960;-96
2022/08/13 11:28:17;;;;;;;;;;;30.00;31.00;;;;;;4967783;28;20010;-96
2022/08/13 11:30:43;;;;;;;;;;;29.90;31.80;;;;;;4966670;28;19969;-96
2022/08/13 11:33:09;;;;;;;;;;;29.90;33.50;;;;;;4965364;28;19992;-96
2022/08/13 11:35:35;;;;;;;;;;;30.00;32.40;;;;;;4964522;28;19944;-96
2022/08/13 11:38:10;;;;;;;;;;;29.90;32.60;;;;;;4964263;28;19974;-96
2022/08/13 11:40:36;;;;;;;;;;;29.90;31.90;;;;;;4965020;28;19949;-96
2022/08/13 11:43:02;;;;;;;;;;;29.80;32.10;;;;;;4965476;28;19947;-96
2022/08/13 11:45:28;;;;;;;;;;;29.70;31.30;;;;;;4967090;28;20021;-96
2022/08/13 11:47:54;;;;;;;;;;;29.90;31.90;;;;;;4969381;28;19946;-96
2022/08/13 11:50:20;;;;;;;;;;;30.30;32.20;;;;;;4969046;28;19953;-96
2022/08/13 11:52:46;;;;;;;;;;;30.60;32.00;;;;;;4967758;28;19975;-96
2022/08/13 11:55:11;;;;;;;;;;;30.90;31.90;;;;;;4968006;28;19940;-96
2022/08/13 11:57:37;;;;;;;;;;;31.20;32.30;;;;;;4969618;28;19940;-96
2022/08/13 12:00:04;;;;;;;;;;;31.40;31.40;;;;;;4967021;28;19972;-96
2022/08/13 12:02:30;;;;;;;;;;;31.40;29.20;;;;;;4968142;28;19969;-96
2022/08/13 12:04:56;;;;;;;;;;;30.90;31.90;;;;;;4969882;28;19945;-96
2022/08/13 12:07:22;;;;;;;;;;;30.90;31.30;;;;;;4968753;28;19947;-96
2022/08/13 12:09:49;;;;;;;;;;;30.70;32.10;;;;;;4971764;28;20007;-96
2022/08/13 12:12:15;;;;;;;;;;;30.70;32.20;;;;;;4971823;28;19969;-96
2022/08/13 12:14:42;;;;;;;;;;;30.70;33.80;;;;;;4975419;29;19938;-96
2022/08/13 12:17:09;;;;;;;;;;;30.90;34.00;;;;;;4959799;28;19946;-96
2022/08/13 12:19:35;;;;;;;;;;;31.20;34.20;;;;;;4976634;28;19942;-96
2022/08/13 12:22:02;;;;;;;;;;;31.30;32.80;;;;;;4976837;28;19928;-96
2022/08/13 12:24:33;;;;;;;;;;;31.40;33.20;;;;;;4994939;28;19948;-96
2022/08/13 12:26:59;;;;;;;;;;;31.90;33.00;;;;;;4978017;28;20053;-96
2022/08/13 12:29:27;;;;;;;;;;;32.30;31.50;;;;;;4978160;28;19947;-96
2022/08/13 12:31:53;;;;;;;;;;;32.30;30.70;;;;;;4995575;28;19962;-96
2022/08/13 12:34:20;;;;;;;;;;;32.70;30.30;;;;;;4978929;28;20008;-96
2022/08/13 12:36:46;;;;;;;;;;;32.70;30.50;;;;;;4977941;28;19945;-96
2022/08/13 12:39:12;;;;;;;;;;;32.50;32.90;;;;;;4978346;28;19977;-96
2022/08/13 12:41:39;;;;;;;;;;;32.30;33.20;;;;;;4978236;28;19943;-96
2022/08/13 12:44:08;;;;;;;;;;;32.10;34.20;;;;;;4978023;28;19954;-96
2022/08/13 12:46:39;;;;;;;;;;;31.90;34.30;;;;;;4982140;28;19951;-96
2022/08/13 12:49:14;;;;;;;;;;;32.20;33.20;;;;;;4995650;28;19944;-96
2022/08/13 12:51:45;;;;;;;;;;;32.40;31.60;;;;;;4977560;28;19993;-96
2022/08/13 12:54:18;;;;;;;;;;;32.10;32.70;;;;;;4961895;28;19948;-96
2022/08/13 12:56:46;;;;;;;;;;;32.40;33.50;;;;;;4995329;28;19939;-96
2022/08/13 12:59:13;;;;;;;;;;;33.00;32.40;;;;;;4977991;28;19939;-96
2022/08/13 13:01:52;;;;;;;;;;;33.50;31.60;;;;;;4978069;28;20012;-96
2022/08/13 13:04:25;;;;;;;;;;;33.90;30.70;;;;;;4995319;28;19947;-96
2022/08/13 13:06:53;;;;;;;;;;;34.30;30.20;;;;;;4976709;28;19939;-96
2022/08/13 13:09:19;;;;;;;;;;;34.70;29.70;;;;;;4993054;28;19929;-96
2022/08/13 13:11:52;;;;;;;;;;;34.20;30.00;;;;;;4976487;28;19980;-96
2022/08/13 13:14:19;;;;;;;;;;;33.90;30.90;;;;;;4994804;28;19944;-96
2022/08/13 13:16:46;;;;;;;;;;;34.70;30.00;;;;;;4994263;28;19965;-96
2022/08/13 13:19:12;;;;;;;;;;;35.70;29.30;;;;;;4974983;28;19979;-96
2022/08/13 13:21:46;;;;;;;;;;;37.10;27.40;;;;;;4975931;28;19955;-96
2022/08/13 13:24:16;;;;;;;;;;;37.10;26.30;;;;;;4974568;28;19946;-96
2022/08/13 13:26:50;;;;;;;;;;;36.70;27.50;;;;;;4974813;28;19966;-96
2022/08/13 13:29:19;;;;;;;;;;;36.30;27.30;;;;;;4975050;28;20016;-96
2022/08/13 13:31:50;;;;;;;;;;;36.00;27.20;;;;;;4975746;29;19980;-96
2022/08/13 13:36:30;;;;;;;;;;;35.90;27.70;;;;;;5028325;28;19953;-96
2022/08/13 13:38:55;;;;;;;;;;;35.00;27.90;;;;;;5028352;28;20026;-96
2022/08/13 13:43:28;;;;;;;;;;;34.80;29.00;;;;;;5029175;28;20310;-96
2022/08/13 13:45:55;;;;;;;;;;;36.60;27.40;;;;;;5028488;28;19949;-96
2022/08/13 13:48:22;;;;;;;;;;;37.10;25.90;;;;;;5027529;28;20032;-96
2022/08/13 13:50:48;;;;;;;;;;;37.50;25.40;;;;;;5029125;28;19941;-96
2022/08/13 13:53:13;;;;;;;;;;;37.80;25.70;;;;;;5029105;28;19956;-96
2022/08/13 13:55:39;;;;;;;;;;;38.70;24.50;;;;;;5030440;28;19994;-96
2022/08/13 13:58:05;;;;;;;;;;;38.20;24.60;;;;;;5029032;28;19948;-96
2022/08/13 14:00:32;;;;;;;;;;;37.90;24.40;;;;;;5028418;28;19945;-96
2022/08/13 14:02:58;;;;;;;;;;;37.70;24.10;;;;;;5028769;28;19972;-96
2022/08/13 14:05:23;;;;;;;;;;;37.10;24.70;;;;;;5027110;28;20309;-96
2022/08/13 14:07:49;;;;;;;;;;;37.40;23.90;;;;;;5028326;28;20312;-96
2022/08/13 14:10:16;;;;;;;;;;;36.90;24.60;;;;;;5026569;28;20394;-96
2022/08/13 14:12:41;;;;;;;;;;;35.20;26.10;;;;;;5027768;28;19969;-96
2022/08/13 14:15:07;;;;;;;;;;;35.30;25.70;;;;;;5027418;28;20337;-96
2022/08/13 14:17:33;;;;;;;;;;;35.60;25.40;;;;;;5026168;28;20325;-96
2022/08/13 14:19:59;;;;;;;;;;;35.80;25.50;;;;;;5027729;28;19944;-96
2022/08/13 14:22:25;;;;;;;;;;;36.70;25.00;;;;;;5027808;28;19970;-96
2022/08/13 14:24:51;;;;;;;;;;;37.30;23.30;;;;;;5028039;28;20022;-96
2022/08/13 14:27:17;;;;;;;;;;;38.20;22.90;;;;;;5027464;28;20460;-96
2022/08/13 14:29:42;;;;;;;;;;;37.70;23.20;;;;;;5027575;28;20438;-96
2022/08/13 14:32:08;;;;;;;;;;;37.20;24.00;;;;;;5027371;28;19940;-96
2022/08/13 14:34:34;;;;;;;;;;;37.40;23.20;;;;;;5027541;28;20312;-96
2022/08/13 14:37:00;;;;;;;;;;;37.00;23.80;;;;;;5027053;28;19959;-96
2022/08/13 14:39:26;;;;;;;;;;;37.40;23.90;;;;;;5027748;28;19941;-96
2022/08/13 14:41:52;;;;;;;;;;;37.90;22.40;;;;;;5034085;28;19985;-96
2022/08/13 14:44:17;;;;;;;;;;;37.10;23.00;;;;;;5047410;28;20403;-96